Portada
METAR-TAF:

METAR-TAF

Aeroports :

Ciutat de Panamà, Panamà

latitud: 08-59N, longitud: 079-31W, altitud: 13 m

Observació

L'informe es va fer fa 56 minuts, a les 16:00 UTC
Vent 17 kt del Nord/Nord-Oest
Temperatura 32°C
Humitat 59%
Pressió 1010 hPa
Visibilitat: 9000 m
Escasses núvols a una alçada de 2000 ft

METAR: MPMG 191600Z 34017KT 9000 FEW020 32/23 Q1010 NOSIG

Hora: 11:56 (16:56 UTC)

Pronòstic

L'informe es va fer fa 6 hores i 6 minuts, a les 10:50 UTC
Pronòstic vàlid del 19 a les 12 UTC al 19 a les 24 UTC
Vent 8 kt del Nord/Nord-Oest
Visibilitat 10 km o més
Escasses núvols a una alçada de 2000 ft
Evolucionant progressivament
l' 19 a les 17 UTC al 19 a les 06 UTC
Vent 18 kt del Nord

TAF: MPMG 191050Z 1912/1924 33008KT 9999 FEW020 BECMG 1917/1906 35018KT

Observacions i pronòstics meteorològics de més de 4000 aeroports (METAR i TAF).

Les estacions disponibles són els punts grocs i vermells al mapa.

Posi el ratolí al punt desitjat per veure el nom de l'estació.

Feu clic per veure les observacions i els pronòstics meteorològics.

Per canviar el mapa: feu clic els botons verds amb una creu de color negre per apropar; al botó verd amb un guió per allunyar la imatge; o en les fletxes verdes per a mapes adjacents.


METAR-TAF: